createdAt,value
2017-12-03T00:00:30.347Z,44.70
2017-12-03T00:01:30.324Z,43.40
2017-12-03T00:02:30.349Z,42.90
2017-12-03T00:03:30.376Z,44.10
2017-12-03T00:04:30.398Z,44.30
2017-12-03T00:05:30.422Z,44.80
2017-12-03T00:06:30.446Z,44.80
2017-12-03T00:07:30.472Z,43.40
2017-12-03T00:08:30.497Z,44.40
2017-12-03T00:09:30.521Z,44.40
2017-12-03T00:10:30.547Z,43.00
2017-12-03T00:11:30.570Z,44.00
2017-12-03T00:12:30.596Z,42.80
2017-12-03T00:13:30.621Z,43.40
2017-12-03T00:14:30.646Z,44.20
2017-12-03T00:15:30.670Z,42.40
2017-12-03T00:16:30.697Z,43.40
2017-12-03T00:17:30.722Z,44.70
2017-12-03T00:18:30.746Z,43.00
2017-12-03T00:19:30.770Z,44.30
2017-12-03T00:20:30.796Z,43.70
2017-12-03T00:21:30.821Z,43.50
2017-12-03T00:22:30.846Z,42.90
2017-12-03T00:23:30.870Z,42.20
2017-12-03T00:24:30.896Z,45.60
2017-12-03T00:25:30.922Z,43.90
2017-12-03T00:26:30.948Z,41.90
2017-12-03T00:27:30.971Z,43.00
2017-12-03T00:28:30.997Z,44.10
2017-12-03T00:29:31.022Z,44.90
2017-12-03T00:30:31.047Z,46.10
2017-12-03T00:31:31.070Z,48.20
2017-12-03T00:32:31.096Z,46.40
2017-12-03T00:33:31.121Z,46.70
2017-12-03T00:34:31.147Z,46.00
2017-12-03T00:35:31.171Z,46.10
2017-12-03T00:36:31.196Z,44.20
2017-12-03T00:37:31.222Z,45.00
2017-12-03T00:38:31.250Z,44.10
2017-12-03T00:39:31.272Z,44.50
2017-12-03T00:40:31.296Z,48.10
2017-12-03T00:41:31.322Z,46.20
2017-12-03T00:42:31.349Z,45.50
2017-12-03T00:43:31.371Z,45.60
2017-12-03T00:44:31.397Z,45.60
2017-12-03T00:45:31.422Z,47.00
2017-12-03T00:46:31.448Z,46.50
2017-12-03T00:47:31.473Z,46.20
2017-12-03T00:48:31.497Z,45.40
2017-12-03T00:49:31.523Z,45.90
2017-12-03T00:50:31.548Z,44.10
2017-12-03T00:51:31.572Z,44.80
2017-12-03T00:52:31.597Z,45.30
2017-12-03T00:53:31.623Z,46.60
2017-12-03T00:54:31.650Z,44.80
2017-12-03T00:55:31.671Z,45.00
2017-12-03T00:56:31.697Z,44.20
2017-12-03T00:57:31.723Z,44.70
2017-12-03T00:58:31.749Z,46.60
2017-12-03T00:59:31.771Z,46.20
2017-12-03T01:00:31.798Z,49.30
2017-12-03T01:01:31.821Z,47.10
2017-12-03T01:02:31.847Z,47.10
2017-12-03T01:03:31.871Z,46.00
2017-12-03T01:04:31.898Z,45.70
2017-12-03T01:05:31.923Z,43.60
2017-12-03T01:06:31.948Z,45.70
2017-12-03T01:07:31.972Z,43.50
2017-12-03T01:08:31.997Z,45.10
2017-12-03T01:09:32.022Z,44.50
2017-12-03T01:10:32.053Z,46.50
2017-12-03T01:11:32.071Z,45.80
2017-12-03T01:12:32.097Z,47.90
2017-12-03T01:13:32.122Z,48.10
2017-12-03T01:14:32.147Z,48.20
2017-12-03T01:15:32.171Z,49.20
2017-12-03T01:16:32.197Z,48.40
2017-12-03T01:17:32.222Z,48.10
2017-12-03T01:18:32.246Z,51.00
2017-12-03T01:19:32.273Z,49.30
2017-12-03T01:20:32.296Z,47.20
2017-12-03T01:21:32.321Z,49.70
2017-12-03T01:22:32.347Z,51.70
2017-12-03T01:23:32.371Z,47.70
2017-12-03T01:24:32.395Z,47.90
2017-12-03T01:25:32.421Z,48.40
2017-12-03T01:26:32.444Z,47.60
2017-12-03T01:27:32.470Z,48.60
2017-12-03T01:28:32.501Z,47.60
2017-12-03T01:29:32.521Z,47.20
2017-12-03T01:30:32.548Z,46.40
2017-12-03T01:31:32.572Z,46.10
2017-12-03T01:32:32.594Z,48.10
2017-12-03T01:33:32.624Z,46.80
2017-12-03T01:34:32.646Z,50.50
2017-12-03T01:35:32.670Z,50.30
2017-12-03T01:36:32.695Z,49.30
2017-12-03T01:37:32.719Z,47.70
2017-12-03T01:38:32.747Z,47.00
2017-12-03T01:39:32.769Z,48.30
2017-12-03T01:40:32.794Z,51.10
2017-12-03T01:41:32.820Z,50.10
2017-12-03T01:42:32.844Z,48.50
2017-12-03T01:43:32.869Z,48.80
2017-12-03T01:44:32.894Z,49.30
2017-12-03T01:45:32.920Z,49.00
2017-12-03T01:46:32.945Z,49.00
2017-12-03T01:47:32.968Z,47.50
2017-12-03T01:48:32.997Z,47.40
2017-12-03T01:49:33.019Z,48.00
2017-12-03T01:50:33.043Z,49.00
2017-12-03T01:51:33.067Z,48.80
2017-12-03T01:52:33.094Z,48.40
2017-12-03T01:53:33.119Z,48.60
2017-12-03T01:54:33.144Z,48.60
2017-12-03T01:55:33.167Z,49.10
2017-12-03T01:56:33.193Z,50.00
2017-12-03T01:57:33.217Z,49.40
2017-12-03T01:58:33.242Z,49.30
2017-12-03T01:59:33.270Z,46.90
2017-12-03T02:00:33.294Z,50.00
2017-12-03T02:01:33.319Z,48.30
2017-12-03T02:02:33.344Z,48.70
2017-12-03T02:03:33.367Z,47.20
2017-12-03T02:04:33.394Z,47.50
2017-12-03T02:05:33.418Z,47.60
2017-12-03T02:06:33.449Z,48.60
2017-12-03T02:07:33.469Z,48.20
2017-12-03T02:08:33.492Z,49.30
2017-12-03T02:09:33.530Z,49.00
2017-12-03T02:10:33.547Z,50.70
2017-12-03T02:11:33.568Z,51.50
2017-12-03T02:12:33.593Z,49.30
2017-12-03T02:13:33.618Z,47.80
2017-12-03T02:14:33.646Z,47.20
2017-12-03T02:15:33.667Z,48.50
2017-12-03T02:16:33.693Z,48.70
2017-12-03T02:17:33.718Z,48.40
2017-12-03T02:18:33.744Z,48.10
2017-12-03T02:19:33.767Z,46.90
2017-12-03T02:20:33.796Z,47.30
2017-12-03T02:21:33.819Z,48.60
2017-12-03T02:22:33.843Z,49.20
2017-12-03T02:23:33.868Z,50.10
2017-12-03T02:24:33.893Z,51.00
2017-12-03T02:25:33.919Z,49.70
2017-12-03T02:26:33.944Z,47.40
2017-12-03T02:27:33.968Z,46.20
2017-12-03T02:28:33.992Z,49.60
2017-12-03T02:29:34.017Z,48.40
2017-12-03T02:30:34.043Z,48.40
2017-12-03T02:31:34.068Z,47.80
2017-12-03T02:32:34.094Z,47.90
2017-12-03T02:33:34.118Z,45.90
2017-12-03T02:34:34.144Z,44.90
2017-12-03T02:35:34.169Z,47.20
2017-12-03T02:36:34.192Z,45.30
2017-12-03T02:37:34.218Z,45.20
2017-12-03T02:38:34.243Z,47.60
2017-12-03T02:39:34.269Z,47.30
2017-12-03T02:40:34.293Z,48.60
2017-12-03T02:41:34.319Z,48.60
2017-12-03T02:42:34.344Z,47.70
2017-12-03T02:43:34.368Z,47.70
2017-12-03T02:44:34.392Z,46.50
2017-12-03T02:45:34.417Z,47.60
2017-12-03T02:46:34.469Z,49.70
2017-12-03T02:47:34.469Z,48.80
2017-12-03T02:48:34.492Z,49.60
2017-12-03T02:49:34.518Z,48.90
2017-12-03T02:50:34.542Z,50.10
2017-12-03T02:51:34.567Z,49.40
2017-12-03T02:52:34.593Z,48.30
2017-12-03T02:53:34.617Z,47.20
2017-12-03T02:54:34.643Z,46.30
2017-12-03T02:55:34.667Z,48.40
2017-12-03T02:56:34.692Z,49.00
2017-12-03T02:57:34.717Z,48.70
2017-12-03T02:58:34.742Z,48.00
2017-12-03T02:59:34.766Z,47.50
2017-12-03T03:00:34.792Z,46.00
2017-12-03T03:01:34.820Z,46.50
2017-12-03T03:02:34.842Z,46.50
2017-12-03T03:03:34.866Z,50.10
2017-12-03T03:04:34.890Z,47.30
2017-12-03T03:05:34.916Z,49.20
2017-12-03T03:06:34.943Z,46.10
2017-12-03T03:07:34.967Z,48.30
2017-12-03T03:08:34.990Z,47.90
2017-12-03T03:09:35.015Z,50.40
2017-12-03T03:10:35.043Z,49.20
2017-12-03T03:11:35.065Z,47.00
2017-12-03T03:12:35.090Z,48.20
2017-12-03T03:13:35.120Z,47.40
2017-12-03T03:14:35.140Z,47.70
2017-12-03T03:15:35.165Z,47.60
2017-12-03T03:16:35.188Z,47.10
2017-12-03T03:17:35.215Z,48.30
2017-12-03T03:18:35.240Z,47.90
2017-12-03T03:19:35.264Z,49.00
2017-12-03T03:20:35.289Z,49.40
2017-12-03T03:21:35.363Z,50.00
2017-12-03T03:22:35.341Z,48.60
2017-12-03T03:23:35.363Z,48.50
2017-12-03T03:24:35.392Z,47.50
2017-12-03T03:25:35.414Z,46.50
2017-12-03T03:26:35.439Z,46.60
2017-12-03T03:27:35.463Z,48.10
2017-12-03T03:28:35.489Z,48.60
2017-12-03T03:29:35.515Z,48.10
2017-12-03T03:30:35.546Z,47.90
2017-12-03T03:31:35.564Z,48.40
2017-12-03T03:32:35.588Z,50.40
2017-12-03T03:33:35.614Z,55.60
2017-12-03T03:34:35.639Z,56.00
2017-12-03T03:35:35.664Z,53.40
2017-12-03T03:36:35.688Z,56.30
2017-12-03T03:37:35.714Z,52.50
2017-12-03T03:38:35.738Z,53.60
2017-12-03T03:39:35.764Z,51.90
2017-12-03T03:40:35.788Z,50.10
2017-12-03T03:41:35.813Z,50.20
2017-12-03T03:42:35.840Z,48.30
2017-12-03T03:43:35.865Z,49.60
2017-12-03T03:44:35.890Z,50.00
2017-12-03T03:45:35.915Z,49.30
2017-12-03T03:46:35.942Z,48.30
2017-12-03T03:47:35.970Z,52.20
2017-12-03T03:48:35.989Z,51.50
2017-12-03T03:49:36.015Z,49.50
2017-12-03T03:50:36.040Z,49.30
2017-12-03T03:51:36.064Z,49.70
2017-12-03T03:52:36.090Z,50.20
2017-12-03T03:53:36.114Z,46.70
2017-12-03T03:54:36.141Z,47.40
2017-12-03T03:55:36.165Z,48.30
2017-12-03T03:56:36.190Z,49.20
2017-12-03T03:57:36.221Z,47.30
2017-12-03T03:58:36.241Z,48.30
2017-12-03T03:59:36.265Z,49.90
2017-12-03T04:00:36.290Z,48.40
2017-12-03T04:01:36.315Z,48.60
2017-12-03T04:02:36.342Z,46.90
2017-12-03T04:03:36.367Z,47.40
2017-12-03T04:04:36.391Z,46.70
2017-12-03T04:05:36.416Z,48.90
2017-12-03T04:06:36.441Z,46.70
2017-12-03T04:07:36.466Z,49.10
2017-12-03T04:08:36.491Z,48.00
2017-12-03T04:09:36.518Z,52.20
2017-12-03T04:10:36.543Z,55.60
2017-12-03T04:11:36.567Z,52.50
2017-12-03T04:12:36.592Z,48.30
2017-12-03T04:13:36.617Z,49.70
2017-12-03T04:14:36.642Z,48.10
2017-12-03T04:15:36.666Z,48.90
2017-12-03T04:16:36.692Z,48.50
2017-12-03T04:17:36.718Z,48.70
2017-12-03T04:18:36.744Z,47.90
2017-12-03T04:19:36.768Z,48.40
2017-12-03T04:20:36.792Z,46.10
2017-12-03T04:21:36.818Z,47.80
2017-12-03T04:22:36.845Z,48.40
2017-12-03T04:23:36.868Z,49.70
2017-12-03T04:24:36.893Z,45.50
2017-12-03T04:25:36.918Z,46.10
2017-12-03T04:26:36.944Z,49.80
2017-12-03T04:27:36.968Z,48.60
2017-12-03T04:28:36.993Z,47.90
2017-12-03T04:29:37.020Z,49.60
2017-12-03T04:30:37.044Z,47.20
2017-12-03T04:31:37.068Z,46.20
2017-12-03T04:32:37.093Z,48.20
2017-12-03T04:33:37.118Z,47.00
2017-12-03T04:34:37.145Z,46.30
2017-12-03T04:35:37.169Z,47.30
2017-12-03T04:36:37.194Z,48.70
2017-12-03T04:37:37.220Z,48.70
2017-12-03T04:38:37.246Z,48.50
2017-12-03T04:39:37.268Z,47.60
2017-12-03T04:40:37.294Z,53.20
2017-12-03T04:41:37.320Z,51.30
2017-12-03T04:42:37.344Z,50.00
2017-12-03T04:43:37.370Z,48.30
2017-12-03T04:44:37.395Z,48.40
2017-12-03T04:45:37.422Z,46.90
2017-12-03T04:46:37.446Z,47.10
2017-12-03T04:47:37.469Z,48.80
2017-12-03T04:48:37.495Z,48.10
2017-12-03T04:49:37.521Z,46.70
2017-12-03T04:50:37.546Z,46.80
2017-12-03T04:51:37.570Z,47.30
2017-12-03T04:52:37.596Z,46.60
2017-12-03T04:53:37.620Z,45.70
2017-12-03T04:54:37.646Z,46.30
2017-12-03T04:55:37.670Z,45.30
2017-12-03T04:56:37.696Z,47.50
2017-12-03T04:57:37.720Z,47.30
2017-12-03T04:58:37.745Z,47.00
2017-12-03T04:59:37.771Z,50.00
2017-12-03T05:00:37.796Z,49.30
2017-12-03T05:01:37.820Z,50.40
2017-12-03T05:02:37.847Z,48.80
2017-12-03T05:03:37.871Z,48.50
2017-12-03T05:04:37.897Z,46.40
2017-12-03T05:05:37.920Z,46.60
2017-12-03T05:06:37.947Z,46.40
2017-12-03T05:07:37.971Z,47.00
2017-12-03T05:08:37.997Z,46.90
2017-12-03T05:09:38.022Z,46.70
2017-12-03T05:10:38.047Z,46.40
2017-12-03T05:11:38.073Z,48.00
2017-12-03T05:12:38.098Z,47.50
2017-12-03T05:13:38.122Z,48.10
2017-12-03T05:14:38.149Z,48.00
2017-12-03T05:15:38.172Z,49.00
2017-12-03T05:16:38.198Z,46.40
2017-12-03T05:17:38.223Z,47.60
2017-12-03T05:18:38.248Z,45.00
2017-12-03T05:19:38.273Z,45.40
2017-12-03T05:20:38.300Z,47.00
2017-12-03T05:21:38.323Z,48.80
2017-12-03T05:22:38.348Z,48.10
2017-12-03T05:23:38.372Z,48.00
2017-12-03T05:24:38.398Z,48.40
2017-12-03T05:25:38.423Z,50.70
2017-12-03T05:26:38.448Z,49.70
2017-12-03T05:27:38.473Z,46.30
2017-12-03T05:28:38.499Z,48.20
2017-12-03T05:29:38.523Z,46.70
2017-12-03T05:30:38.549Z,45.80
2017-12-03T05:31:38.573Z,47.30
2017-12-03T05:32:38.599Z,48.10
2017-12-03T05:33:38.624Z,46.90
2017-12-03T05:34:38.650Z,50.00
2017-12-03T05:35:38.674Z,49.90
2017-12-03T05:36:38.700Z,50.20
2017-12-03T05:37:38.729Z,51.20
2017-12-03T05:38:38.750Z,49.20
2017-12-03T05:39:38.777Z,51.00
2017-12-03T05:40:38.801Z,47.60
2017-12-03T05:41:38.826Z,50.00
2017-12-03T05:42:38.856Z,48.70
2017-12-03T05:43:38.874Z,50.40
2017-12-03T05:44:38.899Z,49.70
2017-12-03T05:45:38.926Z,50.10
2017-12-03T05:46:38.951Z,49.10
2017-12-03T05:47:38.978Z,51.20
2017-12-03T05:48:39.000Z,50.50
2017-12-03T05:49:39.026Z,48.50
2017-12-03T05:50:39.050Z,48.90
2017-12-03T05:51:39.075Z,50.80
2017-12-03T05:52:39.100Z,51.60
2017-12-03T05:53:39.126Z,48.40
2017-12-03T05:54:39.151Z,47.00
2017-12-03T05:55:39.175Z,48.70
2017-12-03T05:56:39.200Z,48.60
2017-12-03T05:57:39.225Z,48.90
2017-12-03T05:58:39.251Z,47.70
2017-12-03T05:59:39.275Z,49.00
2017-12-03T06:00:39.300Z,46.80
2017-12-03T06:01:39.326Z,47.50
2017-12-03T06:02:39.351Z,47.50
2017-12-03T06:03:39.375Z,48.60
2017-12-03T06:04:39.400Z,50.20
2017-12-03T06:05:39.425Z,49.00
2017-12-03T06:06:39.451Z,50.90
2017-12-03T06:07:39.475Z,51.50
2017-12-03T06:08:39.500Z,51.80
2017-12-03T06:09:39.525Z,50.30
2017-12-03T06:10:39.551Z,50.80
2017-12-03T06:11:39.575Z,50.00
2017-12-03T06:12:39.601Z,49.20
2017-12-03T06:13:39.627Z,50.20
2017-12-03T06:14:39.650Z,50.10
2017-12-03T06:15:39.676Z,51.10
2017-12-03T06:16:39.700Z,49.30
2017-12-03T06:17:39.726Z,52.60
2017-12-03T06:18:39.751Z,50.10
2017-12-03T06:19:39.776Z,50.00
2017-12-03T06:20:39.800Z,49.60
2017-12-03T06:21:39.825Z,50.20
2017-12-03T06:22:39.851Z,49.80
2017-12-03T06:23:39.875Z,50.20
2017-12-03T06:24:39.901Z,49.80
2017-12-03T06:25:39.927Z,51.10
2017-12-03T06:26:39.952Z,50.00
2017-12-03T06:27:39.977Z,48.50
2017-12-03T06:28:40.001Z,50.00
2017-12-03T06:29:40.027Z,49.60
2017-12-03T06:30:40.052Z,49.00
2017-12-03T06:31:40.076Z,48.80
2017-12-03T06:32:40.101Z,49.90
2017-12-03T06:33:40.165Z,48.10
2017-12-03T06:34:40.153Z,49.80
2017-12-03T06:35:40.179Z,50.20
2017-12-03T06:36:40.203Z,51.30
2017-12-03T06:37:40.227Z,50.30
2017-12-03T06:38:40.254Z,48.70
2017-12-03T06:39:40.278Z,49.40
2017-12-03T06:40:40.303Z,48.10
2017-12-03T06:41:40.352Z,48.80
2017-12-03T06:42:40.354Z,48.70
2017-12-03T06:43:40.379Z,50.10
2017-12-03T06:44:40.404Z,47.60
2017-12-03T06:45:40.430Z,48.70
2017-12-03T06:46:40.455Z,47.90
2017-12-03T06:47:40.478Z,48.00
2017-12-03T06:48:40.504Z,46.50
2017-12-03T06:49:40.530Z,47.80
2017-12-03T06:50:40.556Z,49.30
2017-12-03T06:51:40.581Z,49.00
2017-12-03T06:52:40.604Z,51.00
2017-12-03T06:53:40.632Z,50.70
2017-12-03T06:54:40.657Z,49.60
2017-12-03T06:55:40.681Z,48.50
2017-12-03T06:56:40.705Z,49.80
2017-12-03T06:57:40.731Z,47.10
2017-12-03T06:58:40.756Z,49.60
2017-12-03T06:59:40.782Z,50.70
2017-12-03T07:00:40.811Z,50.10
2017-12-03T07:01:40.832Z,51.20
2017-12-03T07:02:40.858Z,50.80
2017-12-03T07:03:40.883Z,55.40
2017-12-03T07:04:40.950Z,56.70
2017-12-03T07:05:40.933Z,51.40
2017-12-03T07:06:40.958Z,48.80
2017-12-03T07:07:40.982Z,48.70
2017-12-03T07:08:41.008Z,48.00
2017-12-03T07:09:41.033Z,48.40
2017-12-03T07:10:41.060Z,48.50
2017-12-03T07:11:41.083Z,49.00
2017-12-03T07:12:41.108Z,48.00
2017-12-03T07:13:41.134Z,48.60
2017-12-03T07:14:41.160Z,48.90
2017-12-03T07:15:41.183Z,48.10
2017-12-03T07:16:41.209Z,46.70
2017-12-03T07:17:41.236Z,46.70
2017-12-03T07:18:41.259Z,47.80
2017-12-03T07:19:41.285Z,47.50
2017-12-03T07:20:41.310Z,48.50
2017-12-03T07:21:41.335Z,46.60
2017-12-03T07:22:41.360Z,47.50
2017-12-03T07:23:41.384Z,45.50
2017-12-03T07:24:41.411Z,48.10
2017-12-03T07:25:41.435Z,47.30
2017-12-03T07:26:41.461Z,48.90
2017-12-03T07:27:41.485Z,51.40
2017-12-03T07:28:41.518Z,52.10
2017-12-03T07:29:41.538Z,50.90
2017-12-03T07:30:41.563Z,52.40
2017-12-03T07:31:41.585Z,52.70
2017-12-03T07:32:41.611Z,52.70
2017-12-03T07:33:41.638Z,50.20
2017-12-03T07:34:41.663Z,50.00
2017-12-03T07:35:41.688Z,48.70
2017-12-03T07:36:41.713Z,47.20
2017-12-03T07:37:41.749Z,44.10
2017-12-03T07:38:41.766Z,45.10
2017-12-03T07:39:41.788Z,46.00
2017-12-03T07:40:41.814Z,42.00
2017-12-03T07:41:41.839Z,42.70
2017-12-03T07:42:41.866Z,40.80
2017-12-03T07:43:41.890Z,41.20
2017-12-03T07:44:41.915Z,40.30
2017-12-03T07:45:41.941Z,40.50
2017-12-03T07:46:41.966Z,40.70
2017-12-03T07:47:41.991Z,43.80
2017-12-03T07:48:42.016Z,42.00
2017-12-03T07:49:42.043Z,41.70
2017-12-03T07:50:42.073Z,43.70
2017-12-03T07:51:42.091Z,44.90
2017-12-03T07:52:42.118Z,43.50
2017-12-03T07:53:42.143Z,45.00
2017-12-03T07:54:42.168Z,45.40
2017-12-03T07:55:42.192Z,44.60
2017-12-03T07:56:42.219Z,45.60
2017-12-03T07:57:42.243Z,44.00
2017-12-03T07:58:42.270Z,41.70
2017-12-03T07:59:42.294Z,38.10
2017-12-03T08:00:42.319Z,37.60
2017-12-03T08:01:42.344Z,39.00
2017-12-03T08:02:42.371Z,38.10
2017-12-03T08:03:42.395Z,40.00
2017-12-03T08:04:42.421Z,39.30
2017-12-03T08:05:42.447Z,40.90
2017-12-03T08:06:42.473Z,41.30
2017-12-03T08:07:42.498Z,43.50
2017-12-03T08:08:42.524Z,42.50
2017-12-03T08:09:42.549Z,41.10
2017-12-03T08:10:42.613Z,42.00
2017-12-03T08:11:42.599Z,43.00
2017-12-03T08:12:42.624Z,43.40
2017-12-03T08:13:42.651Z,42.00
2017-12-03T08:14:42.678Z,44.00
2017-12-03T08:15:42.704Z,40.00
2017-12-03T08:16:42.729Z,40.20
2017-12-03T08:17:42.754Z,39.00
2017-12-03T08:18:42.781Z,40.10
2017-12-03T08:19:42.805Z,41.40
2017-12-03T08:20:42.832Z,36.80
2017-12-03T08:21:42.858Z,33.70
2017-12-03T08:22:42.884Z,33.20
2017-12-03T08:23:42.909Z,32.00
2017-12-03T08:24:42.934Z,31.20
2017-12-03T08:25:42.959Z,28.70
2017-12-03T08:26:42.986Z,29.60
2017-12-03T08:27:43.012Z,29.40
2017-12-03T08:28:43.038Z,28.30
2017-12-03T08:29:43.064Z,28.20
2017-12-03T08:30:43.089Z,28.90
2017-12-03T08:31:43.114Z,27.30
2017-12-03T08:32:43.142Z,25.90
2017-12-03T08:33:43.168Z,25.00
2017-12-03T08:34:43.194Z,26.10
2017-12-03T08:35:43.220Z,25.20
2017-12-03T08:36:43.244Z,23.70
2017-12-03T08:37:43.272Z,23.00
2017-12-03T08:38:43.298Z,23.30
2017-12-03T08:39:43.323Z,23.00
2017-12-03T08:40:43.349Z,24.20
2017-12-03T08:41:43.374Z,23.00
2017-12-03T08:42:43.402Z,21.10
2017-12-03T08:43:43.426Z,21.40
2017-12-03T08:44:43.453Z,22.10
2017-12-03T08:45:43.480Z,19.80
2017-12-03T08:46:43.506Z,19.10
2017-12-03T08:47:43.535Z,17.90
2017-12-03T08:48:43.559Z,15.70
2017-12-03T08:49:43.592Z,16.50
2017-12-03T08:50:43.611Z,15.20
2017-12-03T08:51:43.638Z,15.80
2017-12-03T08:52:43.665Z,15.10
2017-12-03T08:53:43.690Z,14.60
2017-12-03T08:54:43.717Z,15.30
2017-12-03T08:55:43.742Z,15.30
2017-12-03T08:56:43.769Z,15.90
2017-12-03T08:57:43.795Z,16.20
2017-12-03T08:58:43.821Z,16.80
2017-12-03T08:59:43.858Z,15.60
2017-12-03T09:00:43.875Z,15.00
2017-12-03T09:01:43.902Z,15.20
2017-12-03T09:02:43.928Z,14.80
2017-12-03T09:03:43.962Z,16.00
2017-12-03T09:04:43.982Z,16.90
2017-12-03T09:05:44.009Z,15.10
2017-12-03T09:06:44.038Z,15.20
2017-12-03T09:07:44.064Z,16.30
2017-12-03T09:08:44.092Z,16.20
2017-12-03T09:09:44.120Z,13.40
2017-12-03T09:10:44.148Z,13.70
2017-12-03T09:11:44.176Z,12.90
2017-12-03T09:12:44.206Z,12.30
2017-12-03T09:13:44.241Z,13.10
2017-12-03T09:14:44.264Z,13.30
2017-12-03T09:15:44.295Z,13.50
2017-12-03T09:16:44.323Z,12.80
2017-12-03T09:17:44.352Z,13.30
2017-12-03T09:18:44.383Z,12.90
2017-12-03T09:19:44.412Z,13.60
2017-12-03T09:20:44.444Z,14.30
2017-12-03T09:21:44.474Z,14.20
2017-12-03T09:22:44.504Z,13.10
2017-12-03T09:23:44.535Z,13.30
2017-12-03T09:24:44.566Z,11.50
2017-12-03T09:25:44.597Z,12.50
2017-12-03T09:26:44.626Z,12.60
2017-12-03T09:27:44.657Z,13.30
2017-12-03T09:28:44.689Z,13.00
2017-12-03T09:29:44.742Z,12.70
2017-12-03T09:30:44.752Z,13.10
2017-12-03T09:31:44.783Z,13.80
2017-12-03T09:32:44.815Z,13.50
2017-12-03T09:33:44.848Z,14.00
2017-12-03T09:34:44.879Z,14.40
2017-12-03T09:35:44.910Z,14.00
2017-12-03T09:36:44.942Z,14.10
2017-12-03T09:37:44.974Z,13.50
2017-12-03T09:38:45.005Z,12.70
2017-12-03T09:39:45.035Z,12.70
2017-12-03T09:40:45.068Z,13.10
2017-12-03T09:41:45.100Z,13.30
2017-12-03T09:42:45.129Z,12.10
2017-12-03T09:43:45.161Z,12.90
2017-12-03T09:44:45.210Z,12.10
2017-12-03T09:45:45.222Z,12.50
2017-12-03T09:46:45.254Z,12.50
2017-12-03T09:47:45.283Z,12.80
2017-12-03T09:48:45.316Z,12.80
2017-12-03T09:49:45.346Z,12.30
2017-12-03T09:50:45.385Z,12.80
2017-12-03T09:51:45.408Z,12.50
2017-12-03T09:52:45.438Z,11.90
2017-12-03T09:53:45.470Z,11.70
2017-12-03T09:54:45.500Z,12.10
2017-12-03T09:55:45.534Z,12.30
2017-12-03T09:56:45.560Z,12.10
2017-12-03T09:57:45.592Z,12.80
2017-12-03T09:58:45.622Z,12.80
2017-12-03T09:59:45.651Z,13.80
2017-12-03T10:00:45.682Z,15.00
2017-12-03T10:01:45.718Z,14.80
2017-12-03T10:02:45.742Z,14.20
2017-12-03T10:03:45.772Z,13.20
2017-12-03T10:04:45.803Z,13.80
2017-12-03T10:05:45.832Z,13.20
2017-12-03T10:06:45.863Z,13.50
2017-12-03T10:07:45.891Z,12.90
2017-12-03T10:08:45.920Z,15.00
2017-12-03T10:09:45.952Z,13.20
2017-12-03T10:10:45.982Z,13.70
2017-12-03T10:11:46.011Z,12.50
2017-12-03T10:12:46.042Z,12.20
2017-12-03T10:13:46.072Z,14.00
2017-12-03T10:14:46.104Z,13.10
2017-12-03T10:15:46.139Z,12.80
2017-12-03T10:16:46.163Z,12.10
2017-12-03T10:17:46.191Z,12.40
2017-12-03T10:18:46.222Z,13.20
2017-12-03T10:19:46.255Z,12.70
2017-12-03T10:20:46.283Z,12.10
2017-12-03T10:21:46.315Z,12.40
2017-12-03T10:22:46.344Z,12.20
2017-12-03T10:23:46.374Z,11.90
2017-12-03T10:24:46.404Z,11.80
2017-12-03T10:25:46.436Z,11.50
2017-12-03T10:26:46.467Z,12.50
2017-12-03T10:27:46.497Z,12.20
2017-12-03T10:28:46.528Z,11.90
2017-12-03T10:29:46.560Z,12.00
2017-12-03T10:30:46.591Z,12.30
2017-12-03T10:31:46.621Z,12.30
2017-12-03T10:32:46.655Z,12.00
2017-12-03T10:33:46.684Z,12.70
2017-12-03T10:34:46.717Z,12.50
2017-12-03T10:35:46.746Z,12.80
2017-12-03T10:36:46.777Z,12.50
2017-12-03T10:37:46.808Z,13.20
2017-12-03T10:38:46.842Z,12.50
2017-12-03T10:39:46.870Z,12.50
2017-12-03T10:40:46.903Z,12.40
2017-12-03T10:41:46.934Z,12.30
2017-12-03T10:42:46.966Z,12.30
2017-12-03T10:43:46.996Z,13.80
2017-12-03T10:44:47.027Z,13.30
2017-12-03T10:45:47.058Z,12.90
2017-12-03T10:46:47.092Z,13.00
2017-12-03T10:47:47.122Z,13.30
2017-12-03T10:48:47.154Z,13.30
2017-12-03T10:49:47.187Z,12.60
2017-12-03T10:50:47.219Z,12.40
2017-12-03T10:51:47.251Z,12.90
2017-12-03T10:52:47.284Z,12.90
2017-12-03T10:53:47.317Z,12.80
2017-12-03T10:54:47.350Z,12.20
2017-12-03T10:55:47.386Z,12.90
2017-12-03T10:56:47.416Z,13.10
2017-12-03T10:57:47.450Z,13.00
2017-12-03T10:58:47.485Z,13.40
2017-12-03T10:59:47.518Z,12.40
2017-12-03T11:00:47.553Z,12.80
2017-12-03T11:01:47.588Z,13.30
2017-12-03T11:02:47.624Z,13.20
2017-12-03T11:03:47.658Z,13.00
2017-12-03T11:04:47.694Z,12.70
2017-12-03T11:05:47.778Z,13.50
2017-12-03T11:06:47.766Z,12.30
2017-12-03T11:07:47.803Z,13.50
2017-12-03T11:08:47.839Z,13.00
2017-12-03T11:09:47.876Z,13.40
2017-12-03T11:10:47.971Z,13.00
2017-12-03T11:11:47.981Z,14.30
2017-12-03T11:12:47.988Z,12.60
2017-12-03T11:13:48.026Z,13.90
2017-12-03T11:14:48.063Z,12.90
2017-12-03T11:15:48.101Z,13.60
2017-12-03T11:16:48.140Z,12.70
2017-12-03T11:17:48.205Z,12.70
2017-12-03T11:18:48.215Z,13.50
2017-12-03T11:19:48.251Z,13.40
2017-12-03T11:20:48.290Z,13.10
2017-12-03T11:21:48.328Z,14.70
2017-12-03T11:22:48.363Z,15.30
2017-12-03T11:23:48.401Z,15.10
2017-12-03T11:24:48.438Z,16.10
2017-12-03T11:25:48.476Z,15.80
2017-12-03T11:26:48.514Z,16.80
2017-12-03T11:27:48.548Z,17.20
2017-12-03T11:28:48.585Z,17.00
2017-12-03T11:29:48.620Z,18.00
2017-12-03T11:30:48.658Z,16.50
2017-12-03T11:31:48.693Z,17.20
2017-12-03T11:32:48.729Z,16.60
2017-12-03T11:33:48.765Z,16.50
2017-12-03T11:34:48.801Z,17.00
2017-12-03T11:35:48.834Z,17.10
2017-12-03T11:36:48.869Z,17.50
2017-12-03T11:37:48.905Z,16.30
2017-12-03T11:38:48.939Z,16.90
2017-12-03T11:39:48.972Z,16.60
2017-12-03T11:40:49.005Z,16.70
2017-12-03T11:41:49.041Z,16.90
2017-12-03T11:42:49.074Z,17.40
2017-12-03T11:43:49.106Z,16.80
2017-12-03T11:44:49.140Z,17.60
2017-12-03T11:45:49.172Z,17.70
2017-12-03T11:46:49.206Z,17.50
2017-12-03T11:47:49.237Z,17.40
2017-12-03T11:48:49.270Z,17.20
2017-12-03T11:49:49.302Z,17.20
2017-12-03T11:50:49.336Z,17.50
2017-12-03T11:51:49.366Z,17.20
2017-12-03T11:52:49.398Z,16.60
2017-12-03T11:53:49.432Z,18.40
2017-12-03T11:54:49.463Z,17.90
2017-12-03T11:55:49.494Z,18.50
2017-12-03T11:56:49.525Z,16.90
2017-12-03T11:57:49.557Z,16.20
2017-12-03T11:58:49.587Z,16.90
2017-12-03T11:59:49.618Z,17.50
2017-12-03T12:00:49.649Z,17.40
2017-12-03T12:01:49.679Z,17.30
2017-12-03T12:02:49.711Z,18.50
2017-12-03T12:03:49.741Z,17.30
2017-12-03T12:04:49.776Z,17.00
2017-12-03T12:05:49.801Z,18.20
2017-12-03T12:06:49.833Z,18.10
2017-12-03T12:07:49.862Z,18.10
2017-12-03T12:08:49.892Z,17.60
2017-12-03T12:09:49.923Z,16.70
2017-12-03T12:10:49.954Z,17.50
2017-12-03T12:11:49.982Z,18.10
2017-12-03T12:12:50.013Z,17.50
2017-12-03T12:13:50.046Z,17.60
2017-12-03T12:14:50.073Z,17.10
2017-12-03T12:15:50.102Z,17.20
2017-12-03T12:16:50.132Z,17.40
2017-12-03T12:17:50.161Z,17.80
2017-12-03T12:18:50.193Z,17.00
2017-12-03T12:19:50.222Z,18.20
2017-12-03T12:20:50.251Z,18.10
2017-12-03T12:21:50.281Z,17.00
2017-12-03T12:22:50.310Z,18.10
2017-12-03T12:23:50.338Z,18.00
2017-12-03T12:24:50.369Z,16.20
2017-12-03T12:25:50.400Z,16.10
2017-12-03T12:26:50.427Z,16.80
2017-12-03T12:27:50.457Z,17.20
2017-12-03T12:28:50.486Z,18.40
2017-12-03T12:29:50.515Z,19.00
2017-12-03T12:30:50.544Z,18.30
2017-12-03T12:31:50.573Z,18.00
2017-12-03T12:32:50.610Z,17.80
2017-12-03T12:33:50.633Z,17.10
2017-12-03T12:34:50.663Z,17.10
2017-12-03T12:35:50.691Z,18.70
2017-12-03T12:36:50.721Z,18.60
2017-12-03T12:37:50.750Z,19.40
2017-12-03T12:38:50.781Z,19.20
2017-12-03T12:39:50.808Z,17.90
2017-12-03T12:40:50.838Z,17.00
2017-12-03T12:41:50.867Z,18.50
2017-12-03T12:42:50.897Z,17.20
2017-12-03T12:43:50.926Z,18.00
2017-12-03T12:44:50.954Z,18.90
2017-12-03T12:45:50.982Z,19.30
2017-12-03T12:46:51.011Z,18.50
2017-12-03T12:47:51.040Z,17.60
2017-12-03T12:48:51.068Z,17.80
2017-12-03T12:49:51.097Z,19.40
2017-12-03T12:50:51.127Z,18.90
2017-12-03T12:51:51.160Z,17.90
2017-12-03T12:52:51.185Z,18.80